Time,TemperatureF,DewpointF,PressureIn,WindDirection,WindDirectionDegrees,WindSpeedMPH,WindSpeedGustMPH,Humidity,HourlyPrecipIn,Conditions,Clouds,dailyrainin,SolarRadiationWatts/m^2,SoftwareType,DateUTC
2013-10-19 00:22:00,66.0,28.0,-100.00,West,267,6.0,9.0,24,0.00,,,0.00,371.000000,,2013-10-19 00:22:00,
2013-10-19 00:32:00,66.0,28.0,-100.00,West,267,6.0,9.0,24,0.00,,,0.00,371.000000,,2013-10-19 00:32:00,
2013-10-19 00:42:00,66.0,28.0,-100.00,West,267,6.0,9.0,24,0.00,,,0.00,371.000000,,2013-10-19 00:42:00,
2013-10-19 00:52:00,66.0,28.0,-100.00,West,267,6.0,9.0,24,0.00,,,0.00,371.000000,,2013-10-19 00:52:00,
2013-10-19 01:21:00,63.0,30.0,-100.00,West,277,4.0,8.0,29,0.00,,,0.00,167.000000,,2013-10-19 01:21:00,
2013-10-19 01:32:00,63.0,30.0,-100.00,West,277,4.0,8.0,29,0.00,,,0.00,167.000000,,2013-10-19 01:32:00,
2013-10-19 01:42:00,63.0,30.0,-100.00,West,277,4.0,8.0,29,0.00,,,0.00,167.000000,,2013-10-19 01:42:00,
2013-10-19 01:52:00,63.0,30.0,-100.00,West,277,4.0,8.0,29,0.00,,,0.00,167.000000,,2013-10-19 01:52:00,
2013-10-19 02:21:00,55.0,29.0,-100.00,SW,224,3.0,5.0,36,0.00,,,-99.99,11.000000,,2013-10-19 02:21:00,
2013-10-19 02:32:00,55.0,29.0,-100.00,SW,224,3.0,5.0,36,0.00,,,-99.99,11.000000,,2013-10-19 02:32:00,
2013-10-19 02:42:00,55.0,29.0,-100.00,SW,224,3.0,5.0,36,0.00,,,-99.99,11.000000,,2013-10-19 02:42:00,
2013-10-19 02:52:00,55.0,29.0,-100.00,SW,224,3.0,5.0,36,0.00,,,-99.99,11.000000,,2013-10-19 02:52:00,
2013-10-19 03:23:00,51.0,29.0,-100.00,ESE,107,2.0,4.0,42,-99.99,,,0.00,0.000000,,2013-10-19 03:23:00,
2013-10-19 03:34:00,51.0,29.0,-100.00,ESE,107,2.0,4.0,42,-99.99,,,0.00,0.000000,,2013-10-19 03:34:00,
2013-10-19 03:44:00,51.0,29.0,-100.00,ESE,107,2.0,4.0,42,-99.99,,,0.00,0.000000,,2013-10-19 03:44:00,
2013-10-19 03:54:00,51.0,29.0,-100.00,ESE,107,2.0,4.0,42,-99.99,,,0.00,0.000000,,2013-10-19 03:54:00,
2013-10-19 04:24:00,48.0,30.0,-100.00,ESE,104,2.0,4.0,50,0.00,,,0.00,0.000000,,2013-10-19 04:24:00,
2013-10-19 04:34:00,48.0,30.0,-100.00,ESE,104,2.0,4.0,50,0.00,,,0.00,0.000000,,2013-10-19 04:34:00,
2013-10-19 04:43:00,48.0,30.0,-100.00,ESE,104,2.0,4.0,50,0.00,,,0.00,0.000000,,2013-10-19 04:43:00,
2013-10-19 04:54:00,48.0,30.0,-100.00,ESE,104,2.0,4.0,50,0.00,,,0.00,0.000000,,2013-10-19 04:54:00,
2013-10-19 05:22:00,44.0,29.0,-100.00,East,79,4.0,5.0,56,-99.99,,,0.00,0.000000,,2013-10-19 05:22:00,
2013-10-19 05:34:00,44.0,29.0,-100.00,East,79,4.0,5.0,56,-99.99,,,0.00,0.000000,,2013-10-19 05:34:00,
2013-10-19 05:42:00,44.0,29.0,-100.00,East,79,4.0,5.0,56,-99.99,,,0.00,0.000000,,2013-10-19 05:42:00,
2013-10-19 05:52:00,44.0,29.0,-100.00,East,79,4.0,5.0,56,-99.99,,,0.00,0.000000,,2013-10-19 05:52:00,
2013-10-19 06:22:00,42.0,29.0,-100.00,ENE,74,5.0,7.0,60,0.00,,,-99.99,0.000000,,2013-10-19 06:22:00,
2013-10-19 06:32:00,42.0,29.0,-100.00,ENE,74,5.0,7.0,60,0.00,,,-99.99,0.000000,,2013-10-19 06:32:00,
2013-10-19 06:42:00,42.0,29.0,-100.00,ENE,74,5.0,7.0,60,0.00,,,-99.99,0.000000,,2013-10-19 06:42:00,
2013-10-19 06:52:00,42.0,29.0,-100.00,ENE,74,5.0,7.0,60,0.00,,,-99.99,0.000000,,2013-10-19 06:52:00,
2013-10-19 07:21:00,40.0,29.0,-100.00,ENE,72,6.0,8.0,65,0.00,,,0.00,0.000000,,2013-10-19 07:21:00,
2013-10-19 07:32:00,40.0,29.0,-100.00,ENE,72,6.0,8.0,65,0.00,,,0.00,0.000000,,2013-10-19 07:32:00,
2013-10-19 07:42:00,40.0,29.0,-100.00,ENE,72,6.0,8.0,65,0.00,,,0.00,0.000000,,2013-10-19 07:42:00,
2013-10-19 07:52:00,40.0,29.0,-100.00,ENE,72,6.0,8.0,65,0.00,,,0.00,0.000000,,2013-10-19 07:52:00,
2013-10-19 08:22:00,37.0,28.0,-100.00,ENE,75,5.0,8.0,71,0.00,,,0.00,0.000000,,2013-10-19 08:22:00,
2013-10-19 08:32:00,37.0,28.0,-100.00,ENE,75,5.0,8.0,71,0.00,,,0.00,0.000000,,2013-10-19 08:32:00,
2013-10-19 08:42:00,37.0,28.0,-100.00,ENE,75,5.0,8.0,71,0.00,,,0.00,0.000000,,2013-10-19 08:42:00,
2013-10-19 08:52:00,37.0,28.0,-100.00,ENE,75,5.0,8.0,71,0.00,,,0.00,0.000000,,2013-10-19 08:52:00,
2013-10-19 09:21:00,37.0,28.0,-100.00,ENE,69,6.0,8.0,69,0.00,,,0.00,0.000000,,2013-10-19 09:21:00,
2013-10-19 09:33:00,37.0,28.0,-100.00,ENE,69,6.0,8.0,69,0.00,,,0.00,0.000000,,2013-10-19 09:33:00,
2013-10-19 09:43:00,37.0,28.0,-100.00,ENE,69,6.0,8.0,69,0.00,,,0.00,0.000000,,2013-10-19 09:43:00,
2013-10-19 09:53:00,37.0,28.0,-100.00,ENE,69,6.0,8.0,69,0.00,,,0.00,0.000000,,2013-10-19 09:53:00,
2013-10-19 10:23:00,32.0,26.0,-100.00,ENE,72,6.0,9.0,78,0.00,,,0.00,0.000000,,2013-10-19 10:23:00,
2013-10-19 10:32:00,32.0,26.0,-100.00,ENE,72,6.0,9.0,78,0.00,,,0.00,0.000000,,2013-10-19 10:32:00,
2013-10-19 10:42:00,32.0,26.0,-100.00,ENE,72,6.0,9.0,78,0.00,,,0.00,0.000000,,2013-10-19 10:42:00,
2013-10-19 10:53:00,32.0,26.0,-100.00,ENE,72,6.0,9.0,78,0.00,,,0.00,0.000000,,2013-10-19 10:53:00,
2013-10-19 11:22:00,32.0,26.0,-100.00,ENE,64,7.0,10.0,78,0.00,,,0.00,0.000000,,2013-10-19 11:22:00,
2013-10-19 11:33:00,32.0,26.0,-100.00,ENE,64,7.0,10.0,78,0.00,,,0.00,0.000000,,2013-10-19 11:33:00,
2013-10-19 11:42:00,32.0,26.0,-100.00,ENE,64,7.0,10.0,78,0.00,,,0.00,0.000000,,2013-10-19 11:42:00,
2013-10-19 11:52:00,32.0,26.0,-100.00,ENE,64,7.0,10.0,78,0.00,,,0.00,0.000000,,2013-10-19 11:52:00,
2013-10-19 12:21:00,31.0,26.0,-100.00,ENE,77,7.0,12.0,83,0.00,,,-99.99,0.000000,,2013-10-19 12:21:00,
2013-10-19 12:32:00,31.0,26.0,-100.00,ENE,77,7.0,12.0,83,0.00,,,-99.99,0.000000,,2013-10-19 12:32:00,
2013-10-19 12:42:00,31.0,26.0,-100.00,ENE,77,7.0,12.0,83,0.00,,,-99.99,0.000000,,2013-10-19 12:42:00,
2013-10-19 12:52:00,31.0,26.0,-100.00,ENE,77,7.0,12.0,83,0.00,,,-99.99,0.000000,,2013-10-19 12:52:00,
2013-10-19 13:22:00,31.0,26.0,-100.00,ENE,70,7.0,11.0,81,0.00,,,0.00,0.000000,,2013-10-19 13:22:00,
2013-10-19 13:32:00,31.0,26.0,-100.00,ENE,70,7.0,11.0,81,0.00,,,0.00,0.000000,,2013-10-19 13:32:00,
2013-10-19 13:42:00,31.0,26.0,-100.00,ENE,70,7.0,11.0,81,0.00,,,0.00,0.000000,,2013-10-19 13:42:00,
2013-10-19 13:52:00,31.0,26.0,-100.00,ENE,70,7.0,11.0,81,0.00,,,0.00,0.000000,,2013-10-19 13:52:00,
2013-10-19 14:21:00,28.0,25.0,-100.00,ENE,76,7.0,9.0,88,0.00,,,0.00,0.000000,,2013-10-19 14:21:00,
2013-10-19 14:32:00,28.0,25.0,-100.00,ENE,76,7.0,9.0,88,0.00,,,0.00,0.000000,,2013-10-19 14:32:00,
2013-10-19 14:42:00,28.0,25.0,-100.00,ENE,76,7.0,9.0,88,0.00,,,0.00,0.000000,,2013-10-19 14:42:00,
2013-10-19 14:52:00,28.0,25.0,-100.00,ENE,76,7.0,9.0,88,0.00,,,0.00,0.000000,,2013-10-19 14:52:00,
2013-10-19 15:22:00,30.0,26.0,-100.00,ENE,72,7.0,9.0,84,0.00,,,0.00,7.000000,,2013-10-19 15:22:00,
2013-10-19 15:34:00,30.0,26.0,-100.00,ENE,72,7.0,9.0,84,0.00,,,0.00,7.000000,,2013-10-19 15:34:00,
2013-10-19 15:44:00,30.0,26.0,-100.00,ENE,72,7.0,9.0,84,0.00,,,0.00,7.000000,,2013-10-19 15:44:00,
2013-10-19 15:54:00,30.0,26.0,-100.00,ENE,72,7.0,9.0,84,0.00,,,0.00,7.000000,,2013-10-19 15:54:00,
2013-10-19 16:24:00,35.0,27.0,-100.00,ENE,75,5.0,9.0,71,0.00,,,0.00,92.000000,,2013-10-19 16:24:00,
2013-10-19 16:33:00,35.0,27.0,-100.00,ENE,75,5.0,9.0,71,0.00,,,0.00,92.000000,,2013-10-19 16:33:00,
2013-10-19 16:42:00,35.0,27.0,-100.00,ENE,75,5.0,9.0,71,0.00,,,0.00,92.000000,,2013-10-19 16:42:00,
2013-10-19 16:53:00,35.0,27.0,-100.00,ENE,75,5.0,9.0,71,0.00,,,0.00,92.000000,,2013-10-19 16:53:00,
2013-10-19 17:22:00,43.0,28.0,-100.00,NE,55,5.0,8.0,56,0.00,,,0.00,333.000000,,2013-10-19 17:22:00,
2013-10-19 17:34:00,43.0,28.0,-100.00,NE,55,5.0,8.0,56,0.00,,,0.00,333.000000,,2013-10-19 17:34:00,
2013-10-19 17:43:00,43.0,28.0,-100.00,NE,55,5.0,8.0,56,0.00,,,0.00,333.000000,,2013-10-19 17:43:00,
2013-10-19 17:52:00,43.0,28.0,-100.00,NE,55,5.0,8.0,56,0.00,,,0.00,333.000000,,2013-10-19 17:52:00,
2013-10-19 18:21:00,48.0,29.0,-100.00,ENE,58,2.0,7.0,48,0.00,,,0.00,183.000000,,2013-10-19 18:21:00,
2013-10-19 18:32:00,48.0,29.0,-100.00,ENE,58,2.0,7.0,48,0.00,,,0.00,183.000000,,2013-10-19 18:32:00,
2013-10-19 18:42:00,48.0,29.0,-100.00,ENE,58,2.0,7.0,48,0.00,,,0.00,183.000000,,2013-10-19 18:42:00,
2013-10-19 18:52:00,48.0,29.0,-100.00,ENE,58,2.0,7.0,48,0.00,,,0.00,183.000000,,2013-10-19 18:52:00,
2013-10-19 19:22:00,59.0,31.0,-100.00,SE,138,3.0,6.0,34,0.00,,,0.00,498.000000,,2013-10-19 19:22:00,
2013-10-19 19:32:00,59.0,31.0,-100.00,SE,138,3.0,6.0,34,0.00,,,0.00,498.000000,,2013-10-19 19:32:00,
2013-10-19 19:42:00,59.0,31.0,-100.00,SE,138,3.0,6.0,34,0.00,,,0.00,498.000000,,2013-10-19 19:42:00,
2013-10-19 19:52:00,59.0,31.0,-100.00,SE,138,3.0,6.0,34,0.00,,,0.00,498.000000,,2013-10-19 19:52:00,
2013-10-19 20:22:00,62.0,33.0,-100.00,West,259,5.0,8.0,34,0.00,,,0.00,712.000000,,2013-10-19 20:22:00,
2013-10-19 20:32:00,62.0,33.0,-100.00,West,259,5.0,8.0,34,0.00,,,0.00,712.000000,,2013-10-19 20:32:00,
2013-10-19 20:42:00,62.0,33.0,-100.00,West,259,5.0,8.0,34,0.00,,,0.00,712.000000,,2013-10-19 20:42:00,
2013-10-19 20:52:00,62.0,33.0,-100.00,West,259,5.0,8.0,34,0.00,,,0.00,712.000000,,2013-10-19 20:52:00,
2013-10-19 21:21:00,65.0,33.0,-100.00,West,278,5.0,8.0,30,0.00,,,0.00,716.000000,,2013-10-19 21:21:00,
2013-10-19 21:34:00,65.0,33.0,-100.00,West,278,5.0,8.0,30,0.00,,,0.00,716.000000,,2013-10-19 21:34:00,
2013-10-19 21:44:00,65.0,33.0,-100.00,West,278,5.0,8.0,30,0.00,,,0.00,716.000000,,2013-10-19 21:44:00,
2013-10-19 21:54:00,65.0,33.0,-100.00,West,278,5.0,8.0,30,0.00,,,0.00,716.000000,,2013-10-19 21:54:00,
2013-10-19 22:24:00,68.0,32.0,-100.00,WSW,246,4.0,9.0,26,0.00,,,0.00,656.000000,,2013-10-19 22:24:00,
2013-10-19 22:34:00,68.0,32.0,-100.00,WSW,246,4.0,9.0,26,0.00,,,0.00,656.000000,,2013-10-19 22:34:00,
2013-10-19 22:43:00,68.0,32.0,-100.00,WSW,246,4.0,9.0,26,0.00,,,0.00,656.000000,,2013-10-19 22:43:00,
2013-10-19 22:53:00,68.0,32.0,-100.00,WSW,246,4.0,9.0,26,0.00,,,0.00,656.000000,,2013-10-19 22:53:00,
2013-10-19 23:22:00,70.0,30.0,-100.00,West,274,5.0,8.0,23,0.00,,,-99.99,531.000000,,2013-10-19 23:22:00,
2013-10-19 23:34:00,70.0,30.0,-100.00,West,274,5.0,8.0,23,0.00,,,-99.99,531.000000,,2013-10-19 23:34:00,
2013-10-19 23:42:00,70.0,30.0,-100.00,West,274,5.0,8.0,23,0.00,,,-99.99,531.000000,,2013-10-19 23:42:00,
2013-10-19 23:52:00,70.0,30.0,-100.00,West,274,5.0,8.0,23,0.00,,,-99.99,531.000000,,2013-10-19 23:52:00,